Time;durP1;ratioP1;P1;durP2;ratioP2;P2;SDS_P1;SDS_P2;PMS_P1;PMS_P2;Temp;Humidity;BMP_temperature;BMP_pressure;BME280_temperature;BME280_humidity;BME280_pressure;Samples;Min_cycle;Max_cycle;Signal;HPM_P1;HPM_P2
2020/12/11 00:01:50;;;;;;;49.42;27.27;;;21.90;31.20;;;;;;6157647;28;83521;-61
2020/12/11 00:04:51;;;;;;;44.38;26.38;;;21.90;31.30;;;;;;6173048;28;86420;-59
2020/12/11 00:07:51;;;;;;;48.28;26.23;;;21.90;31.30;;;;;;6178132;27;84086;-57
2020/12/11 00:10:52;;;;;;;52.95;28.52;;;21.90;31.30;;;;;;6144287;28;83213;-58
2020/12/11 00:13:52;;;;;;;51.08;27.60;;;21.80;31.10;;;;;;6144473;28;83608;-58
2020/12/11 00:16:53;;;;;;;49.38;27.77;;;21.80;31.20;;;;;;6160347;28;82922;-58
2020/12/11 00:19:53;;;;;;;47.30;27.63;;;21.80;31.10;;;;;;6176962;28;83308;-58
2020/12/11 00:22:54;;;;;;;51.10;27.73;;;21.80;31.10;;;;;;6150448;28;84637;-58
2020/12/11 00:25:58;;;;;;;51.35;29.83;;;21.80;31.10;;;;;;6150132;28;83485;-59
2020/12/11 00:28:58;;;;;;;50.95;28.25;;;21.80;31.00;;;;;;6174449;28;83469;-58
2020/12/11 00:31:59;;;;;;;53.45;29.38;;;21.80;31.10;;;;;;6176359;28;83538;-57
2020/12/11 00:34:59;;;;;;;48.85;28.48;;;21.80;31.10;;;;;;6176092;27;84249;-59
2020/12/11 00:38:00;;;;;;;50.75;28.27;;;21.80;31.20;;;;;;6177875;28;83260;-58
2020/12/11 00:41:00;;;;;;;50.25;26.67;;;21.80;31.20;;;;;;6177621;27;84441;-56
2020/12/11 00:44:01;;;;;;;50.95;27.17;;;21.80;31.40;;;;;;6175073;28;83189;-58
2020/12/11 00:47:02;;;;;;;51.15;27.08;;;21.80;31.30;;;;;;6182776;28;83245;-58
2020/12/11 00:50:02;;;;;;;50.58;26.90;;;21.80;31.30;;;;;;6176089;27;83675;-57
2020/12/11 00:53:03;;;;;;;49.05;26.20;;;21.80;31.30;;;;;;6174792;28;85299;-59
2020/12/11 00:56:04;;;;;;;46.03;26.40;;;21.80;31.50;;;;;;6181449;27;83933;-58
2020/12/11 00:59:04;;;;;;;51.33;27.35;;;21.80;31.40;;;;;;6173464;28;83436;-58
2020/12/11 01:02:05;;;;;;;49.92;27.35;;;21.80;31.40;;;;;;6176715;28;83685;-58
2020/12/11 01:05:05;;;;;;;45.08;25.88;;;21.80;31.20;;;;;;6174351;28;83626;-58
2020/12/11 01:08:06;;;;;;;46.72;27.67;;;21.80;31.40;;;;;;6176291;28;83633;-59
2020/12/11 01:11:06;;;;;;;44.75;26.00;;;21.80;31.20;;;;;;6174431;28;83448;-58
2020/12/11 01:14:07;;;;;;;46.42;27.10;;;21.80;31.30;;;;;;6176993;27;83155;-59
2020/12/11 01:17:07;;;;;;;50.42;28.00;;;21.80;31.30;;;;;;6176746;28;83537;-59
2020/12/11 01:20:08;;;;;;;47.92;28.33;;;21.70;31.40;;;;;;6177606;27;83255;-59
2020/12/11 01:23:08;;;;;;;51.30;27.67;;;21.80;31.40;;;;;;6181574;28;83610;-57
2020/12/11 01:26:09;;;;;;;50.05;28.00;;;21.80;31.40;;;;;;6173855;27;83350;-58
2020/12/11 01:29:09;;;;;;;48.53;27.48;;;21.70;31.30;;;;;;6173505;28;83001;-58
2020/12/11 01:32:10;;;;;;;48.78;28.35;;;21.70;31.30;;;;;;6174364;27;83622;-59
2020/12/11 01:35:10;;;;;;;51.10;27.75;;;21.70;31.40;;;;;;6178150;28;83458;-59
2020/12/11 01:38:11;;;;;;;52.72;29.75;;;21.70;31.30;;;;;;6182140;27;85237;-58
2020/12/11 01:41:11;;;;;;;59.63;30.38;;;21.70;32.00;;;;;;6178712;28;87796;-57
2020/12/11 01:44:12;;;;;;;50.00;27.65;;;21.70;31.40;;;;;;6150359;28;84106;-56
2020/12/11 01:47:12;;;;;;;54.22;29.42;;;21.70;31.50;;;;;;6184307;28;84327;-56
2020/12/11 01:50:19;;;;;;;47.47;27.15;;;21.70;31.50;;;;;;6148407;28;83405;-57
2020/12/11 01:53:19;;;;;;;51.13;27.92;;;21.70;31.70;;;;;;6147466;28;86222;-57
2020/12/11 01:56:20;;;;;;;49.17;27.23;;;21.70;31.80;;;;;;6157979;28;83464;-57
2020/12/11 01:59:21;;;;;;;47.60;27.60;;;21.70;31.90;;;;;;6185320;28;83189;-57
2020/12/11 02:02:21;;;;;;;49.05;26.75;;;21.70;31.90;;;;;;6151302;28;84394;-58
2020/12/11 02:05:22;;;;;;;46.55;26.35;;;21.70;31.90;;;;;;6151338;28;83865;-58
2020/12/11 02:08:23;;;;;;;48.85;26.95;;;21.70;32.00;;;;;;6182206;28;85252;-57
2020/12/11 02:11:23;;;;;;;46.42;26.67;;;21.70;32.00;;;;;;6185707;28;83504;-57
2020/12/11 02:14:24;;;;;;;46.78;25.77;;;21.70;32.00;;;;;;6180136;28;84093;-58
2020/12/11 02:17:27;;;;;;;45.22;25.77;;;21.70;32.00;;;;;;6174133;28;84004;-56
2020/12/11 02:20:28;;;;;;;46.22;25.50;;;21.70;31.80;;;;;;6177467;28;83596;-58
2020/12/11 02:23:28;;;;;;;45.47;25.90;;;21.70;31.80;;;;;;6190436;28;83713;-58
2020/12/11 02:26:29;;;;;;;46.13;24.92;;;21.70;31.80;;;;;;6185598;28;83398;-57
2020/12/11 02:29:29;;;;;;;41.10;25.02;;;21.70;31.80;;;;;;6189688;28;83077;-56
2020/12/11 02:32:30;;;;;;;48.17;25.40;;;21.70;31.80;;;;;;6189163;28;84065;-58
2020/12/11 02:35:30;;;;;;;45.10;24.50;;;21.70;31.90;;;;;;6178467;28;83378;-59
2020/12/11 02:38:31;;;;;;;43.33;23.77;;;21.70;32.60;;;;;;6185134;28;85102;-59
2020/12/11 02:41:32;;;;;;;40.47;23.35;;;21.70;32.00;;;;;;6159957;28;83279;-59
2020/12/11 02:44:32;;;;;;;40.45;23.42;;;21.70;31.90;;;;;;6178526;27;84208;-58
2020/12/11 02:47:33;;;;;;;41.70;23.92;;;21.70;32.00;;;;;;6186161;28;83213;-58
2020/12/11 02:50:33;;;;;;;41.55;23.77;;;21.70;32.10;;;;;;6149284;28;83525;-58
2020/12/11 02:53:34;;;;;;;45.97;25.10;;;21.70;32.00;;;;;;6155061;28;83331;-59
2020/12/11 02:56:34;;;;;;;42.90;25.73;;;21.70;31.80;;;;;;6154863;27;83433;-57
2020/12/11 02:59:35;;;;;;;46.53;26.38;;;21.70;31.80;;;;;;6162385;28;83262;-57
2020/12/11 03:02:35;;;;;;;44.67;26.27;;;21.70;31.70;;;;;;6174229;28;83481;-58
2020/12/11 03:05:36;;;;;;;48.42;25.95;;;21.70;31.60;;;;;;6157444;28;85491;-59
2020/12/11 03:08:36;;;;;;;45.00;25.73;;;21.70;31.50;;;;;;6155866;28;83982;-57
2020/12/11 03:11:37;;;;;;;47.50;26.10;;;21.60;31.50;;;;;;6173894;28;83631;-57
2020/12/11 03:14:38;;;;;;;48.85;27.50;;;21.60;31.50;;;;;;6160123;28;83003;-57
2020/12/11 03:17:38;;;;;;;45.10;26.17;;;21.60;31.50;;;;;;6190004;28;83482;-58
2020/12/11 03:20:39;;;;;;;48.00;26.80;;;21.60;31.50;;;;;;6177527;28;83256;-58
2020/12/11 03:23:39;;;;;;;48.40;27.15;;;21.60;31.30;;;;;;6179374;28;83370;-59
2020/12/11 03:26:40;;;;;;;49.08;27.60;;;21.60;31.20;;;;;;6183639;27;83271;-58
2020/12/11 03:29:40;;;;;;;47.00;26.50;;;21.60;31.20;;;;;;6191417;28;83170;-58
2020/12/11 03:32:41;;;;;;;52.40;28.70;;;21.60;31.20;;;;;;6179110;27;84135;-58
2020/12/11 03:35:41;;;;;;;52.88;30.27;;;21.50;31.10;;;;;;6187094;28;83122;-58
2020/12/11 03:38:42;;;;;;;50.45;29.00;;;21.50;31.00;;;;;;6179034;28;82954;-57
2020/12/11 03:41:43;;;;;;;53.03;29.17;;;21.50;31.00;;;;;;6181023;28;84385;-56
2020/12/11 03:44:43;;;;;;;50.92;28.63;;;21.50;30.90;;;;;;6181304;28;83682;-57
2020/12/11 03:47:44;;;;;;;51.50;29.75;;;21.50;30.90;;;;;;6180208;28;84086;-57
2020/12/11 03:50:46;;;;;;;48.85;29.20;;;21.50;30.90;;;;;;6175391;28;84347;-57
2020/12/11 03:53:47;;;;;;;48.70;27.60;;;21.50;30.80;;;;;;6188102;28;83661;-58
2020/12/11 03:56:48;;;;;;;58.42;29.63;;;21.50;30.80;;;;;;6189754;28;83403;-57
2020/12/11 03:59:49;;;;;;;58.53;28.35;;;21.50;30.70;;;;;;6186758;28;86141;-56
2020/12/11 04:02:49;;;;;;;57.53;29.60;;;21.50;30.70;;;;;;6181578;28;83190;-57
2020/12/11 04:05:50;;;;;;;50.13;29.65;;;21.50;30.70;;;;;;6177615;28;82886;-57
2020/12/11 04:08:50;;;;;;;52.95;30.77;;;21.50;30.60;;;;;;6172043;28;84748;-58
2020/12/11 04:11:51;;;;;;;52.03;29.70;;;21.50;30.60;;;;;;6156136;28;86305;-57
2020/12/11 04:14:51;;;;;;;50.92;29.67;;;21.50;30.50;;;;;;6166448;28;84215;-57
2020/12/11 04:17:52;;;;;;;49.22;29.02;;;21.50;30.40;;;;;;6159355;28;83279;-58
2020/12/11 04:20:52;;;;;;;54.80;30.10;;;21.50;30.50;;;;;;6165783;28;83349;-58
2020/12/11 04:23:53;;;;;;;51.53;29.92;;;21.50;30.40;;;;;;6163888;28;83551;-58
2020/12/11 04:26:53;;;;;;;52.85;30.50;;;21.50;30.30;;;;;;6157425;27;83675;-57
2020/12/11 04:29:54;;;;;;;55.17;30.02;;;21.50;30.30;;;;;;6143375;28;83240;-58
2020/12/11 04:32:54;;;;;;;50.17;29.88;;;21.50;30.20;;;;;;6163501;28;83664;-57
2020/12/11 04:35:55;;;;;;;58.58;30.63;;;21.50;30.20;;;;;;6175687;28;83166;-57
2020/12/11 04:38:55;;;;;;;55.90;31.15;;;21.50;30.10;;;;;;6184144;27;83698;-57
2020/12/11 04:41:56;;;;;;;59.28;32.42;;;21.50;30.10;;;;;;6172989;28;84980;-58
2020/12/11 04:44:56;;;;;;;54.45;30.17;;;21.50;30.20;;;;;;6159864;28;83839;-58
2020/12/11 04:47:57;;;;;;;48.13;29.98;;;21.50;30.30;;;;;;6162101;28;83535;-57
2020/12/11 04:50:57;;;;;;;55.92;31.10;;;21.50;30.50;;;;;;6172061;28;83438;-56
2020/12/11 04:53:58;;;;;;;54.90;31.00;;;21.50;30.50;;;;;;6164083;28;83454;-57
2020/12/11 04:56:59;;;;;;;49.85;28.55;;;21.50;30.40;;;;;;6164578;28;83015;-58
2020/12/11 04:59:59;;;;;;;53.83;30.58;;;21.50;30.90;;;;;;6158004;28;84039;-57
2020/12/11 05:03:00;;;;;;;50.90;29.85;;;21.60;30.10;;;;;;6155366;28;83363;-57
2020/12/11 05:06:00;;;;;;;54.63;29.63;;;21.60;29.70;;;;;;6166931;28;83403;-57
2020/12/11 05:09:01;;;;;;;52.03;31.13;;;21.70;29.70;;;;;;6181949;28;83333;-57
2020/12/11 05:12:01;;;;;;;51.90;28.70;;;21.70;29.60;;;;;;6192055;28;83160;-57
2020/12/11 05:15:02;;;;;;;56.17;29.00;;;21.80;29.30;;;;;;6176079;28;83270;-56
2020/12/11 05:18:02;;;;;;;55.10;30.48;;;21.80;29.30;;;;;;6191217;28;84513;-56
2020/12/11 05:21:03;;;;;;;56.90;30.90;;;21.90;29.20;;;;;;6176040;27;83548;-56
2020/12/11 05:24:04;;;;;;;53.20;30.45;;;21.90;29.00;;;;;;6151845;28;83430;-57
2020/12/11 05:27:04;;;;;;;51.08;29.13;;;22.00;29.50;;;;;;6151947;28;83274;-54
2020/12/11 05:30:05;;;;;;;49.45;28.83;;;22.10;29.80;;;;;;6156423;28;83004;-56
2020/12/11 05:33:05;;;;;;;39.22;24.65;;;22.10;30.50;;;;;;6167833;27;83970;-58
2020/12/11 05:36:06;;;;;;;40.08;21.83;;;22.10;31.60;;;;;;6184531;28;83414;-58
2020/12/11 05:39:06;;;;;;;30.70;18.35;;;22.10;33.60;;;;;;6176896;28;86387;-59
2020/12/11 05:42:07;;;;;;;28.50;17.02;;;22.10;34.20;;;;;;6178823;27;83564;-60
2020/12/11 05:45:07;;;;;;;33.88;18.60;;;22.10;35.00;;;;;;6178157;28;84004;-60
2020/12/11 05:48:08;;;;;;;27.20;15.95;;;22.10;36.20;;;;;;6180791;27;84713;-59
2020/12/11 05:51:08;;;;;;;27.75;15.50;;;22.10;36.80;;;;;;6175873;28;85032;-60
2020/12/11 05:54:11;;;;;;;30.10;15.32;;;22.10;37.60;;;;;;6184363;27;83928;-60
2020/12/11 05:57:12;;;;;;;24.67;13.75;;;22.20;39.00;;;;;;6180240;28;83749;-59
2020/12/11 06:00:12;;;;;;;24.85;13.65;;;22.20;39.50;;;;;;6171753;27;83532;-59
2020/12/11 06:03:13;;;;;;;25.75;14.63;;;22.30;39.30;;;;;;6174236;28;83551;-58
2020/12/11 06:06:13;;;;;;;25.52;14.45;;;22.30;39.40;;;;;;6173525;28;85703;-59
2020/12/11 06:09:14;;;;;;;30.27;14.85;;;22.30;39.10;;;;;;6177682;28;83205;-57
2020/12/11 06:12:15;;;;;;;27.77;16.15;;;22.30;39.20;;;;;;6176225;28;84065;-67
2020/12/11 06:15:16;;;;;;;24.83;14.68;;;22.30;39.80;;;;;;6165182;28;83668;-68
2020/12/11 06:18:16;;;;;;;25.58;13.57;;;22.30;39.70;;;;;;6168511;28;85917;-68
2020/12/11 06:21:17;;;;;;;24.38;13.88;;;22.30;40.30;;;;;;6147412;28;84166;-68
2020/12/11 06:24:17;;;;;;;22.33;12.70;;;22.40;39.80;;;;;;6168059;28;83920;-67
2020/12/11 06:27:17;;;;;;;22.17;12.30;;;22.30;40.10;;;;;;6165759;28;83215;-67
2020/12/11 06:30:18;;;;;;;22.40;13.02;;;22.30;40.00;;;;;;6175821;27;83471;-68
2020/12/11 06:33:18;;;;;;;23.02;13.00;;;22.30;39.40;;;;;;6165103;28;83254;-67
2020/12/11 06:36:19;;;;;;;24.42;12.18;;;22.30;39.50;;;;;;6155736;28;83656;-67
2020/12/11 06:39:19;;;;;;;23.85;12.18;;;22.30;38.50;;;;;;6153536;28;83269;-68
2020/12/11 06:42:20;;;;;;;27.27;12.90;;;22.30;37.90;;;;;;6143183;28;84121;-66
2020/12/11 06:45:20;;;;;;;24.95;12.40;;;22.30;37.40;;;;;;6162242;28;83705;-67
2020/12/11 06:48:21;;;;;;;26.00;12.90;;;22.30;37.10;;;;;;6178179;28;86794;-67
2020/12/11 06:51:21;;;;;;;23.30;12.57;;;22.20;36.80;;;;;;6179032;28;85175;-67
2020/12/11 06:54:22;;;;;;;26.05;13.07;;;22.20;36.30;;;;;;6173725;28;84640;-67
2020/12/11 06:57:23;;;;;;;28.02;13.80;;;22.10;35.90;;;;;;6166480;28;83802;-67
2020/12/11 07:00:23;;;;;;;22.65;12.98;;;22.10;35.40;;;;;;6161895;28;83532;-68
2020/12/11 07:03:24;;;;;;;29.38;13.88;;;22.10;35.20;;;;;;6174571;27;83453;-68
2020/12/11 07:06:24;;;;;;;26.55;14.32;;;22.10;35.00;;;;;;6171351;28;83473;-67
2020/12/11 07:09:25;;;;;;;23.23;13.15;;;22.10;34.80;;;;;;6170450;27;84370;-67
2020/12/11 07:12:26;;;;;;;25.38;14.10;;;22.10;34.80;;;;;;6172263;28;83254;-68
2020/12/11 07:15:27;;;;;;;24.98;12.98;;;22.00;34.60;;;;;;6163416;28;83129;-67
2020/12/11 07:18:27;;;;;;;20.17;11.10;;;22.00;34.40;;;;;;6174696;28;84005;-66
2020/12/11 07:21:28;;;;;;;24.30;12.35;;;22.00;34.10;;;;;;6176198;28;83168;-66
2020/12/11 07:24:28;;;;;;;24.63;13.05;;;22.00;34.00;;;;;;6166241;28;83747;-66
2020/12/11 07:27:29;;;;;;;23.58;12.18;;;22.00;33.80;;;;;;6151474;28;83399;-67
2020/12/11 07:30:29;;;;;;;18.38;10.95;;;22.00;33.70;;;;;;6160058;28;84033;-67
2020/12/11 07:33:30;;;;;;;20.38;11.88;;;21.90;34.20;;;;;;6174301;28;85919;-66
2020/12/11 07:36:30;;;;;;;24.17;12.07;;;21.90;33.40;;;;;;6172915;28;83589;-66
2020/12/11 07:39:31;;;;;;;20.42;11.38;;;21.90;33.60;;;;;;6161802;27;84598;-66
2020/12/11 07:42:32;;;;;;;20.83;11.65;;;21.90;33.40;;;;;;6172880;28;83488;-66
2020/12/11 07:45:37;;;;;;;22.10;11.85;;;21.90;33.80;;;;;;6166746;27;83650;-66
2020/12/11 07:48:37;;;;;;;18.70;10.63;;;21.90;34.30;;;;;;6171583;28;83705;-67
2020/12/11 07:51:38;;;;;;;16.48;9.50;;;21.90;33.90;;;;;;6164825;27;83246;-67
2020/12/11 07:54:38;;;;;;;15.13;8.68;;;22.00;33.60;;;;;;6176917;28;81768;-66
2020/12/11 07:57:39;;;;;;;17.73;10.07;;;21.90;33.00;;;;;;6165936;28;82071;-66
2020/12/11 08:00:39;;;;;;;24.73;11.30;;;21.90;34.20;;;;;;6148030;28;85900;-66
2020/12/11 08:03:40;;;;;;;18.08;9.95;;;22.00;35.50;;;;;;6144119;28;84365;-66
2020/12/11 08:06:40;;;;;;;19.35;10.80;;;22.00;35.00;;;;;;6165422;28;83018;-67
2020/12/11 08:09:41;;;;;;;19.83;10.73;;;22.00;35.50;;;;;;6162292;28;85222;-67
2020/12/11 08:12:42;;;;;;;20.48;10.48;;;22.10;36.00;;;;;;6160875;28;84316;-66
2020/12/11 08:15:42;;;;;;;20.83;12.00;;;22.10;36.30;;;;;;6173374;27;83970;-66
2020/12/11 08:18:43;;;;;;;20.75;11.70;;;22.10;36.90;;;;;;6173976;28;84823;-66
2020/12/11 08:21:43;;;;;;;18.85;11.82;;;22.10;37.50;;;;;;6154312;27;83144;-65
2020/12/11 08:24:44;;;;;;;24.10;12.35;;;22.10;37.70;;;;;;6161878;28;83750;-66
2020/12/11 08:27:45;;;;;;;21.35;12.50;;;22.10;37.80;;;;;;6162078;28;83668;-65
2020/12/11 08:30:46;;;;;;;22.38;12.77;;;22.20;38.60;;;;;;6158040;28;83510;-65
2020/12/11 08:33:46;;;;;;;21.70;13.15;;;22.20;38.30;;;;;;6141737;28;83800;-62
2020/12/11 08:36:47;;;;;;;22.67;13.52;;;22.20;38.50;;;;;;6162231;28;83472;-63
2020/12/11 08:39:48;;;;;;;18.40;11.27;;;22.20;38.80;;;;;;6153329;28;86096;-63
2020/12/11 08:42:54;;;;;;;21.10;12.77;;;22.20;38.90;;;;;;6159061;28;83941;-63
2020/12/11 08:46:14;;;;;;;22.42;13.13;;;22.20;38.70;;;;;;6160616;27;84153;-63
2020/12/11 08:49:20;;;;;;;22.27;12.52;;;22.20;38.60;;;;;;6173078;28;83308;-62
2020/12/11 08:52:20;;;;;;;;;;;22.30;38.50;;;;;;6173250;27;83686;-61
2020/12/11 08:55:21;;;;;;;20.50;11.80;;;22.20;38.90;;;;;;6178540;28;84551;-63
2020/12/11 08:58:21;;;;;;;24.15;13.77;;;22.20;38.80;;;;;;6165938;27;83432;-65
2020/12/11 09:01:22;;;;;;;22.63;14.07;;;22.30;38.50;;;;;;6154839;28;83269;-64
2020/12/11 09:04:22;;;;;;;23.15;13.57;;;22.20;38.90;;;;;;6146851;28;83811;-65
2020/12/11 09:07:26;;;;;;;26.05;15.00;;;22.30;39.20;;;;;;6137818;28;86877;-64
2020/12/11 09:10:26;;;;;;;25.88;13.85;;;22.20;39.40;;;;;;6172489;28;83711;-64
2020/12/11 09:13:27;;;;;;;21.40;13.18;;;22.20;39.40;;;;;;6157784;28;83720;-64
2020/12/11 09:16:27;;;;;;;24.55;13.57;;;22.20;38.90;;;;;;6143601;28;83487;-64
2020/12/11 09:19:28;;;;;;;22.63;12.75;;;22.20;38.80;;;;;;6144585;28;83423;-64
2020/12/11 09:22:28;;;;;;;22.38;13.25;;;22.20;38.10;;;;;;6146787;28;83246;-60
2020/12/11 09:25:29;;;;;;;22.75;13.48;;;22.20;37.80;;;;;;6150827;28;83194;-64
2020/12/11 09:28:30;;;;;;;18.98;11.70;;;22.20;37.40;;;;;;6181757;28;83271;-63
2020/12/11 09:31:30;;;;;;;17.45;11.40;;;22.20;37.30;;;;;;6171961;28;83986;-63
2020/12/11 09:34:34;;;;;;;16.90;11.15;;;22.20;37.00;;;;;;6168213;28;83865;-64
2020/12/11 09:37:35;;;;;;;18.95;11.43;;;22.30;36.80;;;;;;6167090;28;84178;-64
2020/12/11 09:53:06;;;;;;;20.05;11.98;;;22.20;35.50;;;;;;6173346;28;84020;-64
2020/12/11 09:56:08;;;;;;;18.00;10.65;;;22.20;35.50;;;;;;6171178;28;83533;-64
2020/12/11 09:59:18;;;;;;;21.17;11.55;;;22.20;36.30;;;;;;6167731;27;82983;-63
2020/12/11 10:05:23;;;;;;;21.95;12.10;;;22.20;35.80;;;;;;6171356;28;85577;-63
2020/12/11 10:08:23;;;;;;;19.73;11.25;;;22.20;35.90;;;;;;6172741;28;83479;-64
2020/12/11 10:11:24;;;;;;;18.17;11.30;;;22.30;36.00;;;;;;6173164;28;84180;-64
2020/12/11 10:17:25;;;;;;;21.85;12.27;;;22.30;37.00;;;;;;6170033;28;83483;-65
2020/12/11 10:20:25;;;;;;;19.48;11.80;;;22.30;37.20;;;;;;6180852;28;84278;-67
2020/12/11 10:23:29;;;;;;;19.67;11.40;;;22.40;37.20;;;;;;6172089;28;83439;-66
2020/12/11 10:26:29;;;;;;;18.83;11.40;;;22.40;36.60;;;;;;6171266;27;83527;-66
2020/12/11 10:29:30;;;;;;;20.95;12.25;;;22.40;36.50;;;;;;6170048;28;84356;-64
2020/12/11 10:32:31;;;;;;;20.27;11.20;;;22.50;36.60;;;;;;6164828;28;83046;-65
2020/12/11 10:35:31;;;;;;;18.30;11.43;;;22.50;36.50;;;;;;6165713;28;83181;-65
2020/12/11 10:38:32;;;;;;;22.75;12.05;;;22.60;35.50;;;;;;6171597;28;84114;-65
2020/12/11 10:41:32;;;;;;;19.60;12.45;;;22.60;34.90;;;;;;6165529;28;83863;-65
2020/12/11 10:44:33;;;;;;;17.63;11.15;;;22.60;34.70;;;;;;6160283;28;83738;-64
2020/12/11 10:47:33;;;;;;;17.75;11.35;;;22.60;34.40;;;;;;6171640;28;83868;-65
2020/12/11 10:50:34;;;;;;;19.83;11.23;;;22.60;34.10;;;;;;6165309;28;88164;-65
2020/12/11 10:53:34;;;;;;;18.55;11.50;;;22.70;33.90;;;;;;6166369;28;83102;-65
2020/12/11 10:56:36;;;;;;;17.23;10.05;;;22.70;33.60;;;;;;6171040;27;83866;-64
2020/12/11 10:59:37;;;;;;;18.27;10.18;;;22.60;33.30;;;;;;6168244;28;83521;-63
2020/12/11 11:02:38;;;;;;;19.80;11.32;;;22.70;33.40;;;;;;6169811;28;84549;-64
2020/12/11 11:05:38;;;;;;;20.90;12.15;;;22.60;33.50;;;;;;6173820;28;83823;-65
2020/12/11 11:13:07;;;;;;;24.98;13.85;;;22.70;33.50;;;;;;6153196;28;86986;-64
2020/12/11 11:15:51;;;;;;;26.20;15.88;;;22.70;33.70;;;;;;6156733;28;83320;-64
2020/12/11 11:18:55;;;;;;;23.20;14.80;;;22.70;33.40;;;;;;6140120;28;83629;-64
2020/12/11 11:28:38;;;;;;;25.60;15.32;;;22.60;33.30;;;;;;6135187;28;838967;-64
2020/12/11 11:31:38;;;;;;;22.00;14.32;;;22.50;33.70;;;;;;6172170;28;85214;-64
2020/12/11 11:34:39;;;;;;;27.02;16.17;;;22.50;33.30;;;;;;6154960;28;83114;-64
2020/12/11 11:37:39;;;;;;;27.52;16.73;;;22.50;33.20;;;;;;6164865;28;83815;-64
2020/12/11 11:40:40;;;;;;;24.23;16.02;;;22.50;33.40;;;;;;6172877;28;83461;-64
2020/12/11 11:46:41;;;;;;;26.05;16.60;;;22.50;33.50;;;;;;6174704;27;83062;-62
2020/12/11 11:56:01;;;;;;;25.45;15.45;;;22.40;33.20;;;;;;6175752;28;83059;-63
2020/12/11 11:59:01;;;;;;;24.40;14.38;;;22.40;32.90;;;;;;6167474;28;83474;-63
2020/12/11 12:02:02;;;;;;;25.90;16.55;;;22.40;32.90;;;;;;6173015;28;83478;-66
2020/12/11 12:05:02;;;;;;;27.33;16.45;;;22.40;32.70;;;;;;6168579;27;83584;-63
2020/12/11 12:08:03;;;;;;;26.52;16.45;;;22.40;32.70;;;;;;6169497;28;87076;-63
2020/12/11 12:11:03;;;;;;;26.77;14.88;;;22.40;32.80;;;;;;6172223;28;84006;-63
2020/12/11 12:14:04;;;;;;;25.92;15.27;;;22.40;32.50;;;;;;6169246;28;84759;-63
2020/12/11 12:17:07;;;;;;;26.10;14.98;;;22.40;32.40;;;;;;6175077;27;83242;-62
2020/12/11 12:20:13;;;;;;;28.10;17.15;;;22.40;32.20;;;;;;6170598;28;85783;-65
2020/12/11 12:29:36;;;;;;;27.40;15.85;;;22.50;32.60;;;;;;6169095;28;85840;-66
2020/12/11 12:32:59;;;;;;;27.70;15.00;;;22.50;32.70;;;;;;6165344;28;83466;-64
2020/12/11 12:39:24;;;;;;;23.35;14.45;;;22.50;32.60;;;;;;6179608;27;83582;-65
2020/12/11 12:45:24;;;;;;;23.58;14.82;;;22.40;32.50;;;;;;6172518;27;84715;-65
2020/12/11 12:48:25;;;;;;;22.42;13.45;;;22.50;32.70;;;;;;6158888;28;83375;-64
2020/12/11 12:51:26;;;;;;;22.17;13.95;;;22.50;32.50;;;;;;6144534;28;83293;-64
2020/12/11 12:54:26;;;;;;;22.13;13.65;;;22.40;32.50;;;;;;6164774;28;83604;-64
2020/12/11 12:57:41;;;;;;;23.33;15.02;;;22.50;32.60;;;;;;6151963;28;83781;-65
2020/12/11 13:06:43;;;;;;;23.52;15.10;;;22.50;32.60;;;;;;6167836;27;84166;-66
2020/12/11 13:09:44;;;;;;;22.20;14.43;;;22.40;32.60;;;;;;6169045;28;83458;-65
2020/12/11 13:12:47;;;;;;;22.70;14.80;;;22.40;32.60;;;;;;6169918;27;83630;-66
2020/12/11 13:15:47;;;;;;;21.42;14.07;;;22.40;32.60;;;;;;6169609;28;83497;-65
2020/12/11 13:18:48;;;;;;;24.08;14.15;;;22.40;32.80;;;;;;6168862;28;85883;-65
2020/12/11 13:28:14;;;;;;;18.70;13.40;;;22.50;32.70;;;;;;6169258;28;83745;-65
2020/12/11 13:31:15;;;;;;;18.67;12.77;;;22.50;32.70;;;;;;6172220;28;83630;-63
2020/12/11 13:34:15;;;;;;;22.92;13.93;;;22.40;32.70;;;;;;6164885;28;83609;-64
2020/12/11 13:37:16;;;;;;;19.35;12.82;;;22.40;32.70;;;;;;6155862;28;83346;-63
2020/12/11 13:40:16;;;;;;;22.67;14.30;;;22.40;32.60;;;;;;6162941;28;84400;-63
2020/12/11 13:43:17;;;;;;;20.15;12.63;;;22.40;32.40;;;;;;6153846;28;83485;-63
2020/12/11 13:46:17;;;;;;;21.33;13.45;;;22.30;32.40;;;;;;6143254;28;82846;-63
2020/12/11 13:49:18;;;;;;;21.88;13.32;;;22.30;32.00;;;;;;6157215;28;88385;-64
2020/12/11 13:52:18;;;;;;;23.05;13.82;;;22.30;32.10;;;;;;6146724;28;84330;-63
2020/12/11 13:55:19;;;;;;;18.95;13.05;;;22.30;32.10;;;;;;6141622;28;84506;-63
2020/12/11 13:58:20;;;;;;;18.92;12.98;;;22.30;32.10;;;;;;6145143;27;83586;-63
2020/12/11 14:01:20;;;;;;;18.38;12.00;;;22.30;31.90;;;;;;6141592;28;83025;-63
2020/12/11 14:04:21;;;;;;;20.27;13.02;;;22.20;31.90;;;;;;6158132;28;83223;-63
2020/12/11 14:07:21;;;;;;;25.45;13.85;;;22.20;32.50;;;;;;6149900;28;83641;-62
2020/12/11 14:10:22;;;;;;;20.52;12.45;;;22.20;32.70;;;;;;6152431;28;84049;-63
2020/12/11 14:13:22;;;;;;;17.02;12.10;;;22.30;33.00;;;;;;6161075;28;84037;-63
2020/12/11 14:16:35;;;;;;;28.60;13.90;;;22.30;33.20;;;;;;6168273;28;84948;-64
2020/12/11 14:22:47;;;;;;;23.58;13.40;;;22.50;34.40;;;;;;6171413;28;83346;-63
2020/12/11 14:25:48;;;;;;;18.58;12.05;;;22.50;34.90;;;;;;6160899;27;84401;-64
2020/12/11 14:28:48;;;;;;;19.45;12.88;;;22.60;36.30;;;;;;6169417;28;86433;-65
2020/12/11 14:31:49;;;;;;;18.42;11.30;;;22.60;36.30;;;;;;6172473;27;83717;-65
2020/12/11 14:34:53;;;;;;;18.33;11.43;;;22.60;34.50;;;;;;6172828;28;83570;-63
2020/12/11 14:37:58;;;;;;;16.20;11.48;;;22.60;34.20;;;;;;6172696;28;83320;-64
2020/12/11 14:40:58;;;;;;;16.23;10.57;;;22.60;34.10;;;;;;6175582;28;84400;-64
2020/12/11 14:43:59;;;;;;;19.42;12.15;;;22.60;34.00;;;;;;6175438;28;83783;-64
2020/12/11 14:46:59;;;;;;;18.60;11.32;;;22.60;33.90;;;;;;6171990;28;83912;-64
2020/12/11 14:50:00;;;;;;;18.30;11.70;;;22.60;33.70;;;;;;6175768;28;84956;-64
2020/12/11 14:53:00;;;;;;;18.65;11.93;;;22.60;33.90;;;;;;6170621;27;83377;-64
2020/12/11 14:56:01;;;;;;;19.25;12.98;;;22.60;33.50;;;;;;6165788;28;83685;-64
2020/12/11 14:59:02;;;;;;;20.23;11.85;;;22.60;33.40;;;;;;6153634;28;83109;-65
2020/12/11 15:02:02;;;;;;;18.33;11.75;;;22.60;33.40;;;;;;6166515;28;82926;-65
2020/12/11 15:05:03;;;;;;;18.52;12.57;;;22.60;33.70;;;;;;6144858;28;83927;-64
2020/12/11 15:08:04;;;;;;;19.90;12.63;;;22.60;33.70;;;;;;6170154;28;83234;-64
2020/12/11 15:11:04;;;;;;;22.08;12.85;;;22.60;34.10;;;;;;6175173;28;83286;-64
2020/12/11 15:14:05;;;;;;;19.90;12.18;;;22.60;34.40;;;;;;6169078;28;84260;-63
2020/12/11 15:17:05;;;;;;;18.58;12.13;;;22.60;34.80;;;;;;6143139;27;84120;-63
2020/12/11 15:20:06;;;;;;;19.52;12.55;;;22.50;34.10;;;;;;6165106;28;84250;-63
2020/12/11 15:23:07;;;;;;;19.85;12.38;;;22.50;34.20;;;;;;6165165;28;85739;-64
2020/12/11 15:26:07;;;;;;;22.35;12.50;;;22.50;34.10;;;;;;6162740;28;83621;-65
2020/12/11 15:29:08;;;;;;;24.10;13.13;;;22.50;33.80;;;;;;6161798;28;85954;-66
2020/12/11 15:32:09;;;;;;;23.05;13.77;;;22.50;34.10;;;;;;6172984;28;83399;-65
2020/12/11 15:35:09;;;;;;;21.48;14.52;;;22.50;34.30;;;;;;6167616;28;83293;-64
2020/12/11 15:38:10;;;;;;;23.45;15.80;;;22.50;33.80;;;;;;6175667;27;83463;-65
2020/12/11 15:41:11;;;;;;;28.13;17.17;;;22.50;34.20;;;;;;6177107;28;84350;-65
2020/12/11 15:44:11;;;;;;;31.50;18.88;;;22.50;33.70;;;;;;6174980;28;83346;-65
2020/12/11 15:47:12;;;;;;;39.92;19.80;;;22.50;34.20;;;;;;6181643;28;85958;-64
2020/12/11 15:50:23;;;;;;;43.22;20.23;;;22.50;35.00;;;;;;6172938;28;86619;-63
2020/12/11 15:53:24;;;;;;;48.60;21.08;;;22.50;35.10;;;;;;6174033;28;84737;-65
2020/12/11 15:56:24;;;;;;;42.80;20.50;;;22.40;35.90;;;;;;6173609;27;83137;-64
2020/12/11 15:59:25;;;;;;;47.30;20.65;;;22.50;36.10;;;;;;6168075;28;83094;-66
2020/12/11 16:02:25;;;;;;;34.03;18.52;;;22.50;36.10;;;;;;6170611;28;84793;-66
2020/12/11 16:05:27;;;;;;;42.25;20.77;;;22.50;36.00;;;;;;6165567;28;84101;-65
2020/12/11 16:08:27;;;;;;;40.53;19.05;;;22.50;36.20;;;;;;6162061;28;83292;-65
2020/12/11 16:11:29;;;;;;;41.45;19.33;;;22.50;36.50;;;;;;6157344;28;87635;-60
2020/12/11 16:14:29;;;;;;;36.28;20.67;;;22.50;36.30;;;;;;6172743;27;83950;-65
2020/12/11 16:17:30;;;;;;;40.42;20.35;;;22.50;36.20;;;;;;6170025;28;83466;-65
2020/12/11 16:20:30;;;;;;;38.58;20.20;;;22.50;36.30;;;;;;6136440;28;82981;-69
2020/12/11 16:23:31;;;;;;;41.88;20.73;;;22.50;36.00;;;;;;6138363;28;83317;-67
2020/12/11 16:26:33;;;;;;;39.08;21.05;;;22.50;36.20;;;;;;6140544;28;83638;-66